IGO696F VAAH-VANM
Flight info
| Callsign | IGO696F |
|---|---|
| Flight time | 0h 49m |
| Altitude | 31000 |
| Route | BVR1A BVR R458 BOFIN NMB |
| Aircraft | A21N/M-SDE2E3FGHIRWXY/LB1 |
Departure
| Time | 2026-05-06 12:51 |
|---|---|
| Airport | Sardar Vallabh Patel International Airport (VAAH) |
Arrival
| Time | 2026-05-06 13:41 |
|---|---|
| Airport | Navi Mumbai International Airport (VANM) |
| Time | Latitude | Longitude | Altitude | Speed | Heading |
|---|---|---|---|---|---|
| 2026-05-06 12:38 | 23.07068 | 72.61959 | 187 ft | 0 kts | 45° |
| 2026-05-06 12:45 | 23.07066 | 72.61958 | 187 ft | 2 kts | 45° |
| 2026-05-06 12:45 | 23.07046 | 72.61933 | 188 ft | 2 kts | 72° |
| 2026-05-06 12:46 | 23.07044 | 72.61917 | 188 ft | 2 kts | 101° |
| 2026-05-06 12:46 | 23.07050 | 72.61903 | 188 ft | 0 kts | 130° |
| 2026-05-06 12:46 | 23.07054 | 72.61899 | 188 ft | 1 kts | 136° |
| 2026-05-06 12:46 | 23.07056 | 72.61897 | 188 ft | 0 kts | 135° |
| 2026-05-06 12:47 | 23.07054 | 72.61900 | 188 ft | 1 kts | 135° |
| 2026-05-06 12:48 | 23.07043 | 72.61911 | 188 ft | 2 kts | 135° |
| 2026-05-06 12:48 | 23.07028 | 72.61927 | 188 ft | 3 kts | 135° |
| 2026-05-06 12:48 | 23.07002 | 72.61957 | 189 ft | 7 kts | 134° |
| 2026-05-06 12:48 | 23.06955 | 72.62009 | 189 ft | 11 kts | 134° |
| 2026-05-06 12:49 | 23.06883 | 72.62035 | 189 ft | 13 kts | 218° |
| 2026-05-06 12:49 | 23.06796 | 72.62032 | 189 ft | 15 kts | 138° |
| 2026-05-06 12:49 | 23.06719 | 72.62124 | 189 ft | 16 kts | 137° |
| 2026-05-06 12:49 | 23.06640 | 72.62202 | 189 ft | 9 kts | 134° |
| 2026-05-06 12:50 | 23.06613 | 72.62256 | 189 ft | 1 kts | 55° |
| 2026-05-06 12:50 | 23.06617 | 72.62261 | 189 ft | 0 kts | 44° |
| 2026-05-06 12:50 | 23.06636 | 72.62281 | 189 ft | 20 kts | 44° |
| 2026-05-06 12:50 | 23.06934 | 72.62600 | 189 ft | 96 kts | 45° |
| 2026-05-06 12:51 | 23.07569 | 72.63281 | 188 ft | 157 kts | 44° |
| 2026-05-06 12:51 | 23.08447 | 72.64218 | 400 ft | 187 kts | 45° |
| 2026-05-06 12:51 | 23.09402 | 72.65280 | 748 ft | 205 kts | 46° |
| 2026-05-06 12:51 | 23.10131 | 72.66615 | 1019 ft | 216 kts | 78° |
| 2026-05-06 12:52 | 23.10189 | 72.68304 | 1259 ft | 231 kts | 92° |
| 2026-05-06 12:52 | 23.09937 | 72.70086 | 1454 ft | 249 kts | 111° |
| 2026-05-06 12:52 | 23.08932 | 72.71675 | 1726 ft | 264 kts | 135° |
| 2026-05-06 12:52 | 23.07548 | 72.73038 | 2097 ft | 274 kts | 139° |
| 2026-05-06 12:53 | 23.06109 | 72.74397 | 2659 ft | 277 kts | 138° |
| 2026-05-06 12:53 | 23.04203 | 72.76295 | 3401 ft | 280 kts | 136° |
| 2026-05-06 12:53 | 23.03262 | 72.77268 | 3778 ft | 281 kts | 135° |
| 2026-05-06 12:53 | 23.01854 | 72.78747 | 4348 ft | 283 kts | 135° |
| 2026-05-06 12:54 | 23.00367 | 72.80107 | 4896 ft | 286 kts | 151° |
| 2026-05-06 12:54 | 22.98461 | 72.80630 | 5448 ft | 286 kts | 182° |
| 2026-05-06 12:54 | 22.96491 | 72.80328 | 6050 ft | 287 kts | 191° |
| 2026-05-06 12:54 | 22.94503 | 72.79939 | 6623 ft | 290 kts | 190° |
| 2026-05-06 12:55 | 22.92523 | 72.79565 | 7225 ft | 291 kts | 190° |
| 2026-05-06 12:55 | 22.90514 | 72.79200 | 7809 ft | 294 kts | 189° |
| 2026-05-06 12:55 | 22.88475 | 72.78838 | 8386 ft | 296 kts | 189° |
| 2026-05-06 12:55 | 22.86440 | 72.78481 | 8968 ft | 299 kts | 189° |
| 2026-05-06 12:56 | 22.84386 | 72.78121 | 9550 ft | 301 kts | 189° |
| 2026-05-06 12:56 | 22.82312 | 72.77760 | 10084 ft | 305 kts | 189° |
| 2026-05-06 12:56 | 22.80163 | 72.77389 | 10354 ft | 320 kts | 189° |
| 2026-05-06 12:56 | 22.77895 | 72.76994 | 10614 ft | 334 kts | 189° |
| 2026-05-06 12:57 | 22.75574 | 72.76514 | 10941 ft | 345 kts | 197° |
| 2026-05-06 12:57 | 22.73411 | 72.75362 | 11433 ft | 350 kts | 217° |
| 2026-05-06 12:57 | 22.71648 | 72.73546 | 12011 ft | 350 kts | 230° |
| 2026-05-06 12:57 | 22.70078 | 72.71552 | 12563 ft | 354 kts | 231° |
| 2026-05-06 12:58 | 22.68498 | 72.69511 | 13111 ft | 356 kts | 231° |
| 2026-05-06 12:58 | 22.66869 | 72.67433 | 13652 ft | 359 kts | 231° |
| 2026-05-06 12:58 | 22.65253 | 72.65396 | 14166 ft | 362 kts | 231° |
| 2026-05-06 12:58 | 22.63595 | 72.63316 | 14692 ft | 364 kts | 231° |
| 2026-05-06 12:59 | 22.61947 | 72.61254 | 15189 ft | 366 kts | 231° |
| 2026-05-06 12:59 | 22.60286 | 72.59177 | 15667 ft | 368 kts | 231° |
| 2026-05-06 12:59 | 22.58609 | 72.57080 | 16131 ft | 370 kts | 231° |
| 2026-05-06 12:59 | 22.56924 | 72.54975 | 16579 ft | 372 kts | 231° |
| 2026-05-06 13:00 | 22.55210 | 72.52833 | 17022 ft | 374 kts | 231° |
| 2026-05-06 13:00 | 22.53516 | 72.50716 | 17452 ft | 375 kts | 231° |
| 2026-05-06 13:00 | 22.51800 | 72.48577 | 17883 ft | 377 kts | 231° |
| 2026-05-06 13:00 | 22.50094 | 72.46452 | 18306 ft | 378 kts | 231° |
| 2026-05-06 13:01 | 22.48289 | 72.44371 | 18712 ft | 382 kts | 224° |
| 2026-05-06 13:01 | 22.46076 | 72.42702 | 19107 ft | 387 kts | 211° |
| 2026-05-06 13:01 | 22.43585 | 72.41589 | 19493 ft | 391 kts | 201° |
| 2026-05-06 13:01 | 22.40988 | 72.40716 | 19866 ft | 394 kts | 200° |
| 2026-05-06 13:02 | 22.38357 | 72.39864 | 20215 ft | 396 kts | 200° |
| 2026-05-06 13:02 | 22.35699 | 72.39002 | 20559 ft | 398 kts | 200° |
| 2026-05-06 13:02 | 22.33041 | 72.38133 | 20902 ft | 400 kts | 200° |
| 2026-05-06 13:02 | 22.30351 | 72.37249 | 21241 ft | 402 kts | 201° |
| 2026-05-06 13:03 | 22.27684 | 72.36368 | 21549 ft | 405 kts | 201° |
| 2026-05-06 13:03 | 22.24975 | 72.35471 | 21872 ft | 407 kts | 201° |
| 2026-05-06 13:03 | 22.22254 | 72.34569 | 22195 ft | 408 kts | 201° |
| 2026-05-06 13:03 | 22.19546 | 72.33672 | 22503 ft | 410 kts | 201° |
| 2026-05-06 13:04 | 22.16813 | 72.32764 | 22799 ft | 412 kts | 201° |
| 2026-05-06 13:04 | 22.14028 | 72.31839 | 23088 ft | 415 kts | 201° |
| 2026-05-06 13:04 | 22.11278 | 72.30927 | 23354 ft | 417 kts | 202° |
| 2026-05-06 13:04 | 22.08505 | 72.30009 | 23617 ft | 419 kts | 202° |
| 2026-05-06 13:05 | 22.05706 | 72.29082 | 23890 ft | 421 kts | 202° |
| 2026-05-06 13:05 | 22.02882 | 72.28146 | 24148 ft | 423 kts | 202° |
| 2026-05-06 13:05 | 22.00064 | 72.27213 | 24382 ft | 425 kts | 202° |
| 2026-05-06 13:05 | 21.97230 | 72.26276 | 24627 ft | 427 kts | 202° |
| 2026-05-06 13:06 | 21.94363 | 72.25327 | 24865 ft | 429 kts | 202° |
| 2026-05-06 13:06 | 21.91500 | 72.24381 | 25099 ft | 431 kts | 202° |
| 2026-05-06 13:06 | 21.88613 | 72.23427 | 25335 ft | 433 kts | 202° |
| 2026-05-06 13:06 | 21.85733 | 72.22475 | 25558 ft | 434 kts | 202° |
| 2026-05-06 13:07 | 21.82829 | 72.21517 | 25772 ft | 436 kts | 202° |
| 2026-05-06 13:07 | 21.79895 | 72.20549 | 25988 ft | 438 kts | 202° |
| 2026-05-06 13:07 | 21.76959 | 72.19752 | 26171 ft | 445 kts | 193° |
| 2026-05-06 13:07 | 21.73820 | 72.19544 | 26356 ft | 454 kts | 182° |
| 2026-05-06 13:08 | 21.70679 | 72.19989 | 26550 ft | 461 kts | 171° |
| 2026-05-06 13:08 | 21.67552 | 72.20777 | 26764 ft | 463 kts | 169° |
| 2026-05-06 13:08 | 21.64411 | 72.21630 | 26963 ft | 464 kts | 168° |
| 2026-05-06 13:08 | 21.61255 | 72.22491 | 27153 ft | 466 kts | 169° |
| 2026-05-06 13:09 | 21.58094 | 72.23342 | 27347 ft | 467 kts | 169° |
| 2026-05-06 13:09 | 21.54931 | 72.24183 | 27546 ft | 469 kts | 169° |
| 2026-05-06 13:09 | 21.51758 | 72.25017 | 27751 ft | 470 kts | 169° |
| 2026-05-06 13:09 | 21.48574 | 72.25851 | 27923 ft | 472 kts | 169° |
| 2026-05-06 13:10 | 21.45371 | 72.26688 | 28103 ft | 474 kts | 169° |
| 2026-05-06 13:10 | 21.42149 | 72.27528 | 28296 ft | 475 kts | 169° |
| 2026-05-06 13:10 | 21.38922 | 72.28368 | 28499 ft | 476 kts | 169° |
| 2026-05-06 13:10 | 21.35690 | 72.29209 | 28710 ft | 477 kts | 169° |
| 2026-05-06 13:11 | 21.32502 | 72.30039 | 28959 ft | 477 kts | 169° |
| 2026-05-06 13:11 | 21.29272 | 72.30879 | 29239 ft | 476 kts | 169° |
| 2026-05-06 13:11 | 21.26009 | 72.31728 | 29489 ft | 476 kts | 169° |
| 2026-05-06 13:11 | 21.22784 | 72.32567 | 29713 ft | 477 kts | 169° |
| 2026-05-06 13:12 | 21.19555 | 72.33405 | 29946 ft | 477 kts | 169° |
| 2026-05-06 13:12 | 21.16326 | 72.34243 | 30170 ft | 478 kts | 169° |
| 2026-05-06 13:12 | 21.13107 | 72.35078 | 30400 ft | 478 kts | 169° |
| 2026-05-06 13:12 | 21.09888 | 72.35915 | 30613 ft | 479 kts | 169° |
| 2026-05-06 13:13 | 21.06647 | 72.36755 | 30746 ft | 479 kts | 169° |
| 2026-05-06 13:13 | 21.00151 | 72.38438 | 30756 ft | 479 kts | 169° |
| 2026-05-06 13:14 | 20.93667 | 72.40117 | 30762 ft | 479 kts | 169° |
| 2026-05-06 13:14 | 20.87143 | 72.41791 | 30760 ft | 479 kts | 169° |
| 2026-05-06 13:15 | 20.80682 | 72.43444 | 30764 ft | 479 kts | 169° |
| 2026-05-06 13:15 | 20.74195 | 72.45106 | 30765 ft | 478 kts | 169° |
| 2026-05-06 13:16 | 20.67726 | 72.46765 | 30764 ft | 478 kts | 168° |
| 2026-05-06 13:16 | 20.61229 | 72.48442 | 30722 ft | 478 kts | 168° |
| 2026-05-06 13:16 | 20.58010 | 72.49274 | 30470 ft | 476 kts | 168° |
| 2026-05-06 13:17 | 20.54811 | 72.50098 | 30223 ft | 474 kts | 168° |
| 2026-05-06 13:17 | 20.51579 | 72.50932 | 29970 ft | 473 kts | 168° |
| 2026-05-06 13:17 | 20.48388 | 72.51755 | 29692 ft | 472 kts | 168° |
| 2026-05-06 13:17 | 20.45219 | 72.52571 | 29228 ft | 470 kts | 168° |
| 2026-05-06 13:18 | 20.42023 | 72.53394 | 28802 ft | 465 kts | 168° |
| 2026-05-06 13:18 | 20.38902 | 72.54198 | 28376 ft | 464 kts | 168° |
| 2026-05-06 13:18 | 20.35774 | 72.55004 | 27928 ft | 462 kts | 168° |
| 2026-05-06 13:18 | 20.32623 | 72.55815 | 27411 ft | 459 kts | 168° |
| 2026-05-06 13:19 | 20.29531 | 72.56610 | 26877 ft | 457 kts | 168° |
| 2026-05-06 13:19 | 20.26466 | 72.57398 | 26350 ft | 455 kts | 168° |
| 2026-05-06 13:19 | 20.23383 | 72.58189 | 25821 ft | 452 kts | 168° |
| 2026-05-06 13:19 | 20.20358 | 72.58967 | 25299 ft | 450 kts | 169° |
| 2026-05-06 13:20 | 20.17307 | 72.59750 | 24770 ft | 448 kts | 169° |
| 2026-05-06 13:20 | 20.14274 | 72.60529 | 24242 ft | 445 kts | 169° |
| 2026-05-06 13:20 | 20.11264 | 72.61301 | 23714 ft | 443 kts | 169° |
| 2026-05-06 13:20 | 20.08276 | 72.62066 | 23194 ft | 441 kts | 169° |
| 2026-05-06 13:21 | 20.05329 | 72.62821 | 22680 ft | 438 kts | 169° |
| 2026-05-06 13:21 | 20.02375 | 72.63578 | 22164 ft | 436 kts | 169° |
| 2026-05-06 13:21 | 19.99400 | 72.64339 | 21664 ft | 434 kts | 169° |
| 2026-05-06 13:21 | 19.96492 | 72.65081 | 21289 ft | 428 kts | 169° |
| 2026-05-06 13:22 | 19.93614 | 72.65842 | 21058 ft | 418 kts | 165° |
| 2026-05-06 13:22 | 19.91027 | 72.67194 | 20794 ft | 417 kts | 143° |
| 2026-05-06 13:22 | 19.88984 | 72.69329 | 20581 ft | 416 kts | 131° |
| 2026-05-06 13:22 | 19.87119 | 72.71686 | 20356 ft | 413 kts | 129° |
| 2026-05-06 13:23 | 19.85279 | 72.74027 | 20064 ft | 410 kts | 130° |
| 2026-05-06 13:23 | 19.83424 | 72.76317 | 19412 ft | 414 kts | 131° |
| 2026-05-06 13:23 | 19.81506 | 72.78616 | 18894 ft | 412 kts | 131° |
| 2026-05-06 13:23 | 19.79598 | 72.80860 | 18459 ft | 408 kts | 132° |
| 2026-05-06 13:24 | 19.77715 | 72.83051 | 18037 ft | 404 kts | 132° |
| 2026-05-06 13:24 | 19.75810 | 72.85253 | 17602 ft | 400 kts | 132° |
| 2026-05-06 13:24 | 19.73947 | 72.87400 | 17183 ft | 396 kts | 132° |
| 2026-05-06 13:24 | 19.72074 | 72.89555 | 16759 ft | 392 kts | 132° |
| 2026-05-06 13:25 | 19.70245 | 72.91657 | 16337 ft | 389 kts | 132° |
| 2026-05-06 13:25 | 19.68424 | 72.93748 | 15894 ft | 386 kts | 132° |
| 2026-05-06 13:25 | 19.66588 | 72.95853 | 15451 ft | 383 kts | 132° |
| 2026-05-06 13:25 | 19.64810 | 72.97892 | 15005 ft | 380 kts | 132° |
| 2026-05-06 13:26 | 19.63004 | 72.99961 | 14565 ft | 376 kts | 132° |
| 2026-05-06 13:26 | 19.61240 | 73.01981 | 14138 ft | 373 kts | 132° |
| 2026-05-06 13:26 | 19.59493 | 73.03981 | 13710 ft | 370 kts | 132° |
| 2026-05-06 13:26 | 19.57753 | 73.05973 | 13259 ft | 367 kts | 132° |
| 2026-05-06 13:27 | 19.56025 | 73.07949 | 12855 ft | 363 kts | 132° |
| 2026-05-06 13:27 | 19.54313 | 73.09908 | 12414 ft | 360 kts | 132° |
| 2026-05-06 13:27 | 19.52617 | 73.11848 | 12002 ft | 356 kts | 132° |
| 2026-05-06 13:27 | 19.50956 | 73.13747 | 11579 ft | 353 kts | 132° |
| 2026-05-06 13:28 | 19.49290 | 73.15652 | 11171 ft | 350 kts | 132° |
| 2026-05-06 13:28 | 19.47641 | 73.17535 | 10750 ft | 347 kts | 133° |
| 2026-05-06 13:28 | 19.46011 | 73.19398 | 10392 ft | 342 kts | 133° |
| 2026-05-06 13:28 | 19.44405 | 73.21230 | 10120 ft | 333 kts | 133° |
| 2026-05-06 13:29 | 19.42865 | 73.22987 | 9983 ft | 320 kts | 133° |
| 2026-05-06 13:29 | 19.41386 | 73.24673 | 9861 ft | 307 kts | 132° |
| 2026-05-06 13:29 | 19.39952 | 73.26308 | 9700 ft | 297 kts | 133° |
| 2026-05-06 13:29 | 19.38564 | 73.27894 | 9517 ft | 288 kts | 133° |
| 2026-05-06 13:30 | 19.37211 | 73.29430 | 9178 ft | 285 kts | 133° |
| 2026-05-06 13:30 | 19.35860 | 73.30956 | 8790 ft | 283 kts | 133° |
| 2026-05-06 13:30 | 19.34519 | 73.32471 | 8396 ft | 282 kts | 133° |
| 2026-05-06 13:30 | 19.33191 | 73.33986 | 8008 ft | 281 kts | 132° |
| 2026-05-06 13:31 | 19.31869 | 73.35497 | 7628 ft | 280 kts | 132° |
| 2026-05-06 13:31 | 19.30537 | 73.37022 | 7282 ft | 278 kts | 132° |
| 2026-05-06 13:31 | 19.29233 | 73.38512 | 6905 ft | 277 kts | 132° |
| 2026-05-06 13:31 | 19.27916 | 73.40009 | 6520 ft | 276 kts | 133° |
| 2026-05-06 13:32 | 19.26431 | 73.41252 | 6088 ft | 278 kts | 156° |
| 2026-05-06 13:32 | 19.24517 | 73.41507 | 5669 ft | 280 kts | 189° |
| 2026-05-06 13:32 | 19.22677 | 73.40842 | 5303 ft | 280 kts | 202° |
| 2026-05-06 13:32 | 19.20895 | 73.40056 | 5047 ft | 278 kts | 201° |
| 2026-05-06 13:33 | 19.19060 | 73.39282 | 4934 ft | 281 kts | 201° |
| 2026-05-06 13:33 | 19.17232 | 73.38546 | 4810 ft | 282 kts | 200° |
| 2026-05-06 13:33 | 19.15389 | 73.37824 | 4701 ft | 282 kts | 200° |
| 2026-05-06 13:33 | 19.13546 | 73.37115 | 4589 ft | 282 kts | 200° |
| 2026-05-06 13:34 | 19.11685 | 73.36405 | 4471 ft | 281 kts | 200° |
| 2026-05-06 13:34 | 19.09848 | 73.35707 | 4368 ft | 281 kts | 200° |
| 2026-05-06 13:34 | 19.07999 | 73.35006 | 4266 ft | 280 kts | 200° |
| 2026-05-06 13:34 | 19.06163 | 73.34311 | 4150 ft | 279 kts | 200° |
| 2026-05-06 13:35 | 19.04315 | 73.33612 | 4045 ft | 280 kts | 200° |
| 2026-05-06 13:35 | 19.02475 | 73.32914 | 4028 ft | 279 kts | 201° |
| 2026-05-06 13:35 | 19.00784 | 73.31934 | 4015 ft | 277 kts | 224° |
| 2026-05-06 13:35 | 18.99724 | 73.30338 | 4013 ft | 259 kts | 252° |
| 2026-05-06 13:36 | 18.99543 | 73.28529 | 4031 ft | 243 kts | 282° |
| 2026-05-06 13:36 | 19.00046 | 73.26904 | 4123 ft | 222 kts | 290° |
| 2026-05-06 13:36 | 19.00394 | 73.25393 | 4046 ft | 205 kts | 280° |
| 2026-05-06 13:36 | 19.00501 | 73.23978 | 4035 ft | 182 kts | 273° |
| 2026-05-06 13:37 | 19.00475 | 73.22678 | 3893 ft | 169 kts | 269° |
| 2026-05-06 13:37 | 19.00384 | 73.21486 | 3827 ft | 160 kts | 267° |
| 2026-05-06 13:37 | 19.00264 | 73.20335 | 3587 ft | 157 kts | 266° |
| 2026-05-06 13:37 | 19.00109 | 73.19125 | 2778 ft | 176 kts | 265° |
| 2026-05-06 13:38 | 18.99931 | 73.17866 | 2169 ft | 183 kts | 264° |
| 2026-05-06 13:38 | 18.99726 | 73.16564 | 1812 ft | 167 kts | 263° |
| 2026-05-06 13:38 | 18.99515 | 73.15383 | 1407 ft | 162 kts | 263° |
| 2026-05-06 13:38 | 18.99385 | 73.14240 | 1064 ft | 153 kts | 269° |
| 2026-05-06 13:39 | 18.99299 | 73.13169 | 847 ft | 140 kts | 263° |
| 2026-05-06 13:39 | 18.99167 | 73.12148 | 673 ft | 141 kts | 265° |
| 2026-05-06 13:39 | 18.99036 | 73.11118 | 552 ft | 143 kts | 264° |
| 2026-05-06 13:39 | 18.98913 | 73.10071 | 447 ft | 142 kts | 265° |
| 2026-05-06 13:40 | 18.98739 | 73.08681 | 252 ft | 142 kts | 264° |
| 2026-05-06 13:40 | 18.98650 | 73.07997 | 133 ft | 141 kts | 264° |
| 2026-05-06 13:40 | 18.98528 | 73.06988 | 50 ft | 127 kts | 261° |
| 2026-05-06 13:40 | 18.98427 | 73.06236 | 49 ft | 79 kts | 261° |
| 2026-05-06 13:41 | 18.98384 | 73.05836 | 48 ft | 36 kts | 272° |
| 2026-05-06 13:41 | 18.98418 | 73.05644 | 48 ft | 23 kts | 292° |
| 2026-05-06 13:41 | 18.98473 | 73.05489 | 48 ft | 21 kts | 291° |
| 2026-05-06 13:41 | 18.98531 | 73.05359 | 47 ft | 19 kts | 336° |
| 2026-05-06 13:42 | 18.98638 | 73.05342 | 47 ft | 12 kts | 353° |
| 2026-05-06 13:42 | 18.98703 | 73.05332 | 47 ft | 2 kts | 353° |
| 2026-05-06 13:42 | 18.98712 | 73.05331 | 47 ft | 0 kts | 352° |